Time;durP1;ratioP1;P1;durP2;ratioP2;P2;SDS_P1;SDS_P2;PMS_P1;PMS_P2;Temp;Humidity;BMP_temperature;BMP_pressure;BME280_temperature;BME280_humidity;BME280_pressure;Samples;Min_cycle;Max_cycle;Signal;HPM_P1;HPM_P2
2023/06/08 00:01:04;;;;;;;6.95;6.22;;;;;;;20.80;50.13;100485.19;5136041;27;20199;-61
2023/06/08 00:03:32;;;;;;;8.05;5.57;;;;;;;20.75;50.43;100486.25;5120522;27;20298;-62
2023/06/08 00:06:01;;;;;;;6.53;5.03;;;;;;;20.71;50.42;100479.44;5131982;27;20276;-61
2023/06/08 00:08:30;;;;;;;7.80;5.75;;;;;;;20.72;50.32;100489.00;5131301;27;20200;-61
2023/06/08 00:10:58;;;;;;;7.97;6.45;;;;;;;20.69;50.18;100483.94;5130905;27;20278;-62
2023/06/08 00:13:26;;;;;;;6.75;5.78;;;;;;;20.65;50.30;100492.81;5129386;27;20209;-64
2023/06/08 00:15:54;;;;;;;6.65;6.03;;;;;;;20.63;50.62;100499.91;5127693;27;20260;-62
2023/06/08 00:18:22;;;;;;;6.90;5.97;;;;;;;20.64;50.54;100499.00;5133984;27;20207;-63
2023/06/08 00:20:51;;;;;;;6.65;5.05;;;;;;;20.67;50.32;100504.09;5124248;27;20199;-61
2023/06/08 00:23:19;;;;;;;6.68;5.93;;;;;;;20.68;50.07;100507.56;5131415;27;20199;-60
2023/06/08 00:25:49;;;;;;;7.55;5.47;;;;;;;20.65;50.28;100503.28;5129846;27;20235;-61
2023/06/08 00:28:18;;;;;;;10.60;5.30;;;;;;;20.62;50.18;100503.47;5130007;27;20199;-60
2023/06/08 00:30:46;;;;;;;8.35;5.85;;;;;;;20.58;50.38;100507.13;5130161;27;20203;-62
2023/06/08 00:33:14;;;;;;;5.88;5.28;;;;;;;20.57;50.37;100497.56;5130312;27;20200;-61
2023/06/08 00:35:42;;;;;;;6.30;4.72;;;;;;;20.53;50.36;100500.41;5130036;27;20607;-62
2023/06/08 00:38:10;;;;;;;5.60;5.00;;;;;;;20.52;50.34;100496.94;5127364;27;20199;-62
2023/06/08 00:40:37;;;;;;;7.15;5.18;;;;;;;20.50;50.44;100498.75;5129891;27;21780;-62
2023/06/08 00:43:07;;;;;;;6.28;5.43;;;;;;;20.41;50.65;100492.16;5129804;27;20206;-62
2023/06/08 00:45:35;;;;;;;9.48;6.20;;;;;;;20.32;51.07;100494.31;5129088;27;20257;-61
2023/06/08 00:48:03;;;;;;;6.53;5.35;;;;;;;20.21;51.40;100489.56;5127579;27;20199;-61
2023/06/08 00:50:32;;;;;;;6.13;5.15;;;;;;;20.13;51.53;100492.53;5127742;27;20199;-61
2023/06/08 00:53:00;;;;;;;9.00;5.68;;;;;;;20.06;52.10;100492.84;5132912;27;20218;-63
2023/06/08 00:55:33;;;;;;;5.95;5.22;;;;;;;19.97;52.37;100488.88;5128149;27;20207;-65
2023/06/08 00:58:01;;;;;;;7.18;5.35;;;;;;;19.90;52.70;100487.44;5131739;27;20598;-65
2023/06/08 01:00:32;;;;;;;8.65;5.50;;;;;;;19.86;52.69;100491.97;5134946;27;20195;-65
2023/06/08 01:03:00;;;;;;;5.50;4.78;;;;;;;19.88;52.82;100491.88;5129633;27;20559;-65
2023/06/08 01:05:28;;;;;;;5.25;4.75;;;;;;;19.87;52.67;100490.19;5133478;27;20206;-65
2023/06/08 01:08:05;;;;;;;5.30;4.68;;;;;;;19.86;52.60;100488.50;5130805;27;20195;-67
2023/06/08 01:10:38;;;;;;;5.57;4.72;;;;;;;19.80;52.79;100486.97;5128589;27;20198;-65
2023/06/08 01:13:12;;;;;;;6.60;5.25;;;;;;;19.76;52.98;100488.03;5129196;27;20203;-64
2023/06/08 01:15:45;;;;;;;5.32;4.63;;;;;;;19.76;53.03;100481.03;5134823;27;20248;-66
2023/06/08 01:18:17;;;;;;;8.98;5.18;;;;;;;19.81;53.09;100487.84;5131074;27;20203;-64
2023/06/08 01:21:02;;;;;;;6.05;5.15;;;;;;;19.82;52.77;100489.56;5138306;27;20304;-64
2023/06/08 01:23:38;;;;;;;6.55;5.40;;;;;;;19.71;53.07;100487.41;5134084;27;20563;-64
2023/06/08 01:26:10;;;;;;;9.02;5.07;;;;;;;19.65;53.34;100488.47;5133794;27;20565;-65
2023/06/08 01:28:39;;;;;;;7.47;5.35;;;;;;;19.63;53.48;100487.72;5132156;27;20271;-65
2023/06/08 01:31:07;;;;;;;6.90;4.93;;;;;;;19.58;53.58;100481.78;5133042;27;20286;-64
2023/06/08 01:33:35;;;;;;;6.68;5.65;;;;;;;19.50;53.75;100486.47;5133747;27;20263;-64
2023/06/08 01:36:10;;;;;;;6.95;5.90;;;;;;;19.44;54.01;100484.13;5124937;27;20207;-65
2023/06/08 01:38:46;;;;;;;6.95;6.03;;;;;;;19.41;54.07;100489.50;5131122;27;20206;-64
2023/06/08 01:41:21;;;;;;;9.00;5.78;;;;;;;19.36;54.11;100491.41;5132733;27;20202;-65
2023/06/08 01:43:51;;;;;;;7.13;5.88;;;;;;;19.33;54.29;100495.03;5125361;27;20214;-64
2023/06/08 01:46:23;;;;;;;9.68;5.88;;;;;;;19.30;54.45;100498.59;5132868;27;20653;-63
2023/06/08 01:48:53;;;;;;;6.68;5.88;;;;;;;19.27;54.44;100490.03;5130760;27;20200;-63
2023/06/08 01:51:21;;;;;;;6.90;5.68;;;;;;;19.18;54.72;100493.84;5132307;27;20540;-64
2023/06/08 01:53:49;;;;;;;7.18;5.75;;;;;;;19.14;55.01;100497.50;5134598;27;20642;-63
2023/06/08 01:56:18;;;;;;;7.38;5.50;;;;;;;19.14;55.05;100494.03;5134306;27;20650;-65
2023/06/08 01:58:46;;;;;;;6.40;5.30;;;;;;;19.12;55.09;100495.88;5131288;27;20214;-64
2023/06/08 02:01:14;;;;;;;8.88;5.57;;;;;;;19.11;55.00;100495.03;5134304;27;20565;-65
2023/06/08 02:03:42;;;;;;;6.78;6.13;;;;;;;19.11;55.08;100497.66;5134560;27;20199;-65
2023/06/08 02:06:10;;;;;;;8.10;5.63;;;;;;;19.11;55.06;100492.44;5133812;27;20235;-65
2023/06/08 02:08:38;;;;;;;7.30;5.57;;;;;;;19.11;54.90;100487.19;5125822;27;20238;-65
2023/06/08 02:11:06;;;;;;;6.45;5.80;;;;;;;19.10;54.88;100493.31;5134489;27;20192;-64
2023/06/08 02:13:40;;;;;;;9.20;5.90;;;;;;;19.03;55.02;100499.69;5132042;27;20206;-63
2023/06/08 02:16:08;;;;;;;9.52;6.18;;;;;;;18.95;55.42;100501.75;5133950;27;20568;-64
2023/06/08 02:18:40;;;;;;;7.32;6.43;;;;;;;18.86;55.46;100504.75;5130822;27;20234;-64
2023/06/08 02:21:08;;;;;;;8.38;5.93;;;;;;;18.82;56.11;100504.84;5133315;27;20287;-65
2023/06/08 02:23:36;;;;;;;8.63;6.15;;;;;;;18.80;55.78;100504.03;5129864;27;20201;-64
2023/06/08 02:26:05;;;;;;;7.03;6.32;;;;;;;18.79;55.95;100511.94;5130450;27;20679;-65
2023/06/08 02:28:34;;;;;;;8.52;6.45;;;;;;;18.80;55.85;100508.41;5126219;27;20253;-64
2023/06/08 02:31:04;;;;;;;5.63;5.03;;;;;;;18.79;55.99;100502.34;5127155;27;20203;-64
2023/06/08 02:33:32;;;;;;;6.97;5.25;;;;;;;18.81;55.77;100500.56;5129729;27;20203;-65
2023/06/08 02:36:00;;;;;;;6.70;4.70;;;;;;;18.81;55.58;100500.56;5132618;27;20760;-64
2023/06/08 02:38:28;;;;;;;7.05;4.75;;;;;;;18.81;55.46;100503.16;5132149;27;20213;-64
2023/06/08 02:40:55;;;;;;;6.53;5.70;;;;;;;18.80;55.60;100504.03;5131070;27;20368;-63
2023/06/08 02:43:23;;;;;;;6.25;4.78;;;;;;;18.80;55.49;100509.28;5130901;27;20206;-64
2023/06/08 02:45:51;;;;;;;7.30;4.63;;;;;;;18.85;55.32;100505.63;5131964;27;20597;-64
2023/06/08 02:48:21;;;;;;;5.40;4.90;;;;;;;18.88;55.19;100495.91;5129161;27;20215;-65
2023/06/08 02:50:49;;;;;;;6.03;5.38;;;;;;;18.93;55.07;100498.38;5134640;27;20233;-64
2023/06/08 02:53:17;;;;;;;6.15;5.53;;;;;;;18.93;55.00;100495.75;5133053;27;20207;-64
2023/06/08 02:55:45;;;;;;;7.43;5.28;;;;;;;18.92;54.99;100492.28;5132850;27;20211;-64
2023/06/08 02:58:14;;;;;;;8.77;5.18;;;;;;;18.96;55.19;100493.00;5131997;27;20187;-64
2023/06/08 03:00:41;;;;;;;8.13;5.80;;;;;;;18.98;55.10;100493.81;5120823;27;20206;-65
2023/06/08 03:03:10;;;;;;;6.15;5.15;;;;;;;19.02;54.93;100495.38;5131705;27;20203;-67
2023/06/08 03:05:39;;;;;;;5.45;4.70;;;;;;;19.04;54.93;100504.03;5132175;27;20669;-65
2023/06/08 03:08:08;;;;;;;6.80;4.43;;;;;;;19.06;55.01;100505.66;5140032;27;20229;-64
2023/06/08 03:10:35;;;;;;;6.78;5.07;;;;;;;19.08;54.87;100500.38;5120694;27;20203;-65
2023/06/08 03:13:03;;;;;;;4.40;4.00;;;;;;;19.12;54.79;100506.34;5131667;27;20286;-65
2023/06/08 03:15:31;;;;;;;5.88;4.70;;;;;;;19.13;54.40;100511.47;5126905;27;20199;-63
2023/06/08 03:17:59;;;;;;;5.75;5.00;;;;;;;19.13;54.72;100516.72;5128631;27;20199;-64
2023/06/08 03:20:27;;;;;;;4.95;4.22;;;;;;;19.13;54.54;100511.47;5133002;27;20202;-65
2023/06/08 03:22:57;;;;;;;5.70;4.40;;;;;;;19.14;54.60;100513.19;5131103;27;20596;-64
2023/06/08 03:25:25;;;;;;;6.93;5.00;;;;;;;19.14;54.58;100510.56;5133611;27;20231;-63
2023/06/08 03:27:53;;;;;;;7.97;5.20;;;;;;;19.14;54.44;100512.34;5132074;27;20211;-66
2023/06/08 03:30:20;;;;;;;6.63;4.72;;;;;;;19.12;54.49;100520.25;5131295;27;20203;-66
2023/06/08 03:32:48;;;;;;;5.22;4.72;;;;;;;19.08;54.48;100512.59;5121115;27;20204;-65
2023/06/08 03:35:17;;;;;;;7.53;4.80;;;;;;;19.05;54.70;100509.19;5128159;27;20582;-65
2023/06/08 03:37:45;;;;;;;7.65;5.75;;;;;;;19.02;54.84;100518.91;5132827;27;20218;-64
2023/06/08 03:40:14;;;;;;;9.68;5.68;;;;;;;18.96;55.00;100525.22;5130151;27;20290;-66
2023/06/08 03:42:42;;;;;;;7.50;5.20;;;;;;;18.91;54.89;100521.91;5131347;27;20223;-66
2023/06/08 03:45:11;;;;;;;10.20;5.28;;;;;;;18.88;55.20;100524.63;5133577;27;20209;-66
2023/06/08 03:47:39;;;;;;;8.02;5.55;;;;;;;18.85;54.97;100516.91;5133141;27;20573;-64
2023/06/08 03:50:07;;;;;;;7.40;5.85;;;;;;;18.80;55.16;100519.72;5130272;27;20247;-64
2023/06/08 03:52:36;;;;;;;8.80;5.30;;;;;;;18.79;55.30;100523.25;5131316;27;20226;-65
2023/06/08 03:55:05;;;;;;;6.03;5.05;;;;;;;18.77;55.35;100519.81;5131312;27;20207;-65
2023/06/08 03:57:36;;;;;;;5.88;5.20;;;;;;;18.79;55.54;100525.84;5131602;27;20215;-64
2023/06/08 04:00:08;;;;;;;6.07;5.28;;;;;;;18.75;55.27;100520.81;5132401;27;20199;-65
2023/06/08 04:02:36;;;;;;;9.07;5.40;;;;;;;18.73;55.38;100518.25;5134803;27;20548;-66
2023/06/08 04:05:04;;;;;;;8.70;5.38;;;;;;;18.73;55.67;100523.47;5132134;27;20287;-65
2023/06/08 04:07:34;;;;;;;5.85;5.15;;;;;;;18.74;55.63;100517.34;5133339;27;20689;-65
2023/06/08 04:10:02;;;;;;;6.07;4.97;;;;;;;18.79;55.59;100520.63;5129007;27;20196;-65
2023/06/08 04:12:31;;;;;;;6.93;5.07;;;;;;;18.82;55.60;100517.91;5126057;27;20201;-65
2023/06/08 04:15:01;;;;;;;6.72;5.47;;;;;;;18.85;55.40;100529.97;5130065;27;20276;-66
2023/06/08 04:17:29;;;;;;;5.68;5.18;;;;;;;18.82;55.15;100525.75;5127759;27;20199;-65
2023/06/08 04:19:57;;;;;;;6.28;5.07;;;;;;;18.80;55.29;100524.94;5132516;27;20203;-65
2023/06/08 04:22:27;;;;;;;5.93;4.68;;;;;;;18.71;55.54;100527.91;5129369;27;20199;-66
2023/06/08 04:24:55;;;;;;;7.85;5.90;;;;;;;18.62;55.56;100525.59;5124696;27;20250;-65
2023/06/08 04:27:24;;;;;;;7.03;5.03;;;;;;;18.57;56.12;100527.53;5129494;27;20200;-65
2023/06/08 04:29:53;;;;;;;5.78;4.70;;;;;;;18.58;56.19;100526.63;5130266;27;20628;-65
2023/06/08 04:32:22;;;;;;;6.95;5.00;;;;;;;18.64;56.34;100538.59;5128737;27;20209;-67
2023/06/08 04:34:51;;;;;;;5.57;4.95;;;;;;;18.73;56.29;100535.66;5136378;27;20205;-66
2023/06/08 04:37:19;;;;;;;7.30;5.07;;;;;;;18.85;56.04;100536.97;5127266;27;20195;-66
2023/06/08 04:39:48;;;;;;;6.63;4.68;;;;;;;18.95;55.62;100533.09;5128021;27;20286;-66
2023/06/08 04:42:17;;;;;;;5.63;4.68;;;;;;;19.06;55.14;100536.13;5127731;27;20226;-65
2023/06/08 04:44:45;;;;;;;7.75;4.88;;;;;;;19.07;55.09;100535.22;5128824;27;20610;-65
2023/06/08 04:47:14;;;;;;;5.50;4.60;;;;;;;19.09;55.11;100540.41;5123326;27;20207;-66
2023/06/08 04:49:44;;;;;;;5.40;4.90;;;;;;;19.17;55.25;100533.97;5128225;27;20303;-66
2023/06/08 04:52:15;;;;;;;8.20;4.85;;;;;;;19.31;55.25;100536.88;5129886;27;20203;-66
2023/06/08 04:54:44;;;;;;;7.82;5.70;;;;;;;19.45;54.61;100538.09;5127597;27;20278;-66
2023/06/08 04:57:16;;;;;;;7.22;5.85;;;;;;;19.59;54.36;100535.78;5131009;27;20657;-65
2023/06/08 04:59:45;;;;;;;7.22;5.20;;;;;;;19.70;53.97;100533.59;5126985;27;20195;-66
2023/06/08 05:02:13;;;;;;;6.53;5.80;;;;;;;19.80;53.29;100531.44;5129684;27;20199;-66
2023/06/08 05:04:40;;;;;;;6.32;5.63;;;;;;;19.81;52.83;100532.28;5130211;27;20203;-65
2023/06/08 05:07:10;;;;;;;6.20;4.57;;;;;;;19.84;53.56;100534.78;5129276;27;20600;-66
2023/06/08 05:09:38;;;;;;;5.07;4.57;;;;;;;19.95;52.63;100538.63;5129711;27;20301;-65
2023/06/08 05:12:10;;;;;;;7.10;4.70;;;;;;;19.97;52.11;100535.97;5130681;27;20560;-66
2023/06/08 05:14:38;;;;;;;5.70;4.78;;;;;;;19.96;52.56;100534.28;5127804;27;20199;-66
2023/06/08 05:17:08;;;;;;;5.80;4.78;;;;;;;20.04;52.76;100542.66;5128518;27;20206;-65
2023/06/08 05:19:36;;;;;;;6.20;4.00;;;;;;;20.22;52.04;100534.00;5130301;27;20192;-66
2023/06/08 05:22:05;;;;;;;5.05;4.07;;;;;;;20.42;51.17;100542.72;5128816;27;20910;-66
2023/06/08 05:24:34;;;;;;;4.38;3.90;;;;;;;20.58;50.72;100541.16;5127057;27;20243;-64
2023/06/08 05:27:02;;;;;;;5.97;4.55;;;;;;;20.65;50.68;100539.97;5120530;27;20294;-64
2023/06/08 05:29:30;;;;;;;5.13;4.63;;;;;;;20.77;50.30;100542.94;5129318;27;20223;-64
2023/06/08 05:31:58;;;;;;;4.75;4.28;;;;;;;20.86;49.99;100540.75;5127193;27;20203;-65
2023/06/08 05:34:26;;;;;;;6.95;4.72;;;;;;;20.96;49.88;100544.66;5126934;27;20207;-65
2023/06/08 05:36:54;;;;;;;6.28;4.68;;;;;;;21.02;49.84;100538.25;5131884;27;20641;-66
2023/06/08 05:39:22;;;;;;;5.35;4.45;;;;;;;21.11;49.83;100534.38;5129969;28;20202;-64
2023/06/08 05:41:51;;;;;;;6.15;5.15;;;;;;;21.14;49.77;100529.84;5128657;27;20199;-66
2023/06/08 05:44:19;;;;;;;7.20;5.07;;;;;;;21.18;49.80;100536.63;5126911;27;20571;-66
2023/06/08 05:46:47;;;;;;;4.57;4.07;;;;;;;21.22;49.49;100535.56;5128582;27;20222;-65
2023/06/08 05:49:15;;;;;;;5.32;4.55;;;;;;;21.35;49.50;100541.06;5137930;27;20214;-64
2023/06/08 05:51:43;;;;;;;5.20;4.65;;;;;;;21.56;48.78;100544.44;5126610;27;20285;-67
2023/06/08 05:54:11;;;;;;;6.60;4.63;;;;;;;21.77;47.88;100536.44;5133076;27;20547;-65
2023/06/08 05:56:39;;;;;;;5.50;4.00;;;;;;;21.84;47.75;100540.44;5131467;27;20226;-65
2023/06/08 05:59:09;;;;;;;4.18;3.58;;;;;;;21.89;47.59;100533.19;5129412;27;20203;-64
2023/06/08 06:01:37;;;;;;;6.38;4.72;;;;;;;21.93;47.41;100532.09;5132840;27;20559;-66
2023/06/08 06:04:05;;;;;;;5.35;4.60;;;;;;;22.05;47.31;100534.09;5134417;27;20560;-67
2023/06/08 06:06:40;;;;;;;5.07;4.60;;;;;;;22.23;47.09;100539.34;5142401;27;20201;-65
2023/06/08 06:09:11;;;;;;;5.40;4.10;;;;;;;22.39;47.09;100535.00;5134864;27;20215;-65
2023/06/08 06:11:39;;;;;;;5.38;4.05;;;;;;;22.67;46.14;100532.59;5127253;27;20637;-64
2023/06/08 06:14:08;;;;;;;4.88;4.00;;;;;;;22.78;45.57;100532.00;5127804;27;20703;-65
2023/06/08 06:16:36;;;;;;;6.63;3.55;;;;;;;22.90;45.20;100536.63;5124423;27;20199;-61
2023/06/08 06:19:04;;;;;;;4.07;3.60;;;;;;;23.03;44.18;100535.97;5129103;27;21046;-60
2023/06/08 06:21:32;;;;;;;3.80;3.40;;;;;;;23.12;44.43;100535.44;5127687;27;20199;-60
2023/06/08 06:24:00;;;;;;;4.07;3.70;;;;;;;23.21;44.02;100536.72;5129029;27;20193;-60
2023/06/08 06:26:28;;;;;;;5.97;3.53;;;;;;;23.24;44.00;100532.13;5118439;27;20216;-60
2023/06/08 06:28:56;;;;;;;4.10;3.67;;;;;;;23.37;44.06;100529.63;5127600;27;20219;-60
2023/06/08 06:31:25;;;;;;;3.90;3.50;;;;;;;23.52;43.11;100533.19;5130804;27;20302;-63
2023/06/08 06:33:53;;;;;;;3.50;3.15;;;;;;;23.60;43.22;100530.94;5130849;27;20199;-62
2023/06/08 06:36:21;;;;;;;3.90;3.58;;;;;;;23.77;42.16;100516.84;5126023;27;20197;-61
2023/06/08 06:38:49;;;;;;;3.47;3.17;;;;;;;23.90;42.47;100517.81;5126657;27;22605;-60
2023/06/08 06:41:17;;;;;;;4.45;3.45;;;;;;;24.11;41.80;100521.78;5126823;27;20218;-61
2023/06/08 06:43:45;;;;;;;3.45;3.15;;;;;;;24.22;41.11;100513.22;5125941;27;20214;-61
2023/06/08 06:46:19;;;;;;;3.10;2.80;;;;;;;24.32;40.66;100517.00;5136185;27;20200;-63
2023/06/08 06:48:48;;;;;;;2.80;2.60;;;;;;;24.39;40.74;100514.88;5129601;27;20196;-62
2023/06/08 06:51:16;;;;;;;2.95;2.75;;;;;;;24.65;41.17;100520.31;5133720;27;20587;-62
2023/06/08 06:53:44;;;;;;;3.38;3.05;;;;;;;25.14;40.17;100517.22;5132423;27;20207;-62
2023/06/08 06:56:13;;;;;;;4.35;3.55;;;;;;;25.30;38.61;100517.94;5133297;27;20200;-62
2023/06/08 06:58:44;;;;;;;5.93;3.00;;;;;;;25.43;38.88;100515.31;5125795;27;20635;-63
2023/06/08 07:01:15;;;;;;;4.47;3.33;;;;;;;25.48;38.10;100516.72;5128897;27;20568;-61
2023/06/08 07:03:44;;;;;;;3.03;2.72;;;;;;;25.58;37.99;100521.38;5128758;27;20276;-62
2023/06/08 07:06:14;;;;;;;2.67;2.47;;;;;;;25.49;37.31;100526.31;5130854;27;20865;-62
2023/06/08 07:08:42;;;;;;;5.20;2.80;;;;;;;25.47;38.17;100522.91;5126584;27;20392;-62
2023/06/08 07:11:11;;;;;;;3.00;2.60;;;;;;;25.74;38.05;100508.84;5125404;27;20227;-62
2023/06/08 07:13:39;;;;;;;2.63;2.40;;;;;;;25.97;36.74;100521.34;5132815;27;20203;-63
2023/06/08 07:16:07;;;;;;;4.30;2.38;;;;;;;26.19;36.41;100501.41;5131725;27;20237;-62
2023/06/08 07:18:37;;;;;;;5.10;2.30;;;;;;;26.30;35.39;100514.69;5131437;27;20195;-61
2023/06/08 07:21:05;;;;;;;3.85;2.65;;;;;;;26.33;35.33;100517.13;5128237;27;20621;-62
2023/06/08 07:23:34;;;;;;;2.35;2.15;;;;;;;26.29;35.96;100512.16;5128464;27;20613;-61
2023/06/08 07:26:22;;;;;;;3.40;2.30;;;;;;;26.22;35.98;100520.53;5125541;27;20214;-62
2023/06/08 07:28:57;;;;;;;3.83;2.33;;;;;;;26.19;35.79;100509.31;5125752;27;20233;-62
2023/06/08 07:31:26;;;;;;;2.67;2.22;;;;;;;26.11;35.87;100509.84;5120564;27;20225;-61
2023/06/08 07:33:55;;;;;;;3.25;2.33;;;;;;;25.97;36.35;100516.06;5121124;27;20214;-60
2023/06/08 07:36:23;;;;;;;3.22;2.38;;;;;;;26.02;36.51;100513.13;5121178;27;20279;-60
2023/06/08 07:38:52;;;;;;;2.55;2.22;;;;;;;26.04;36.32;100508.59;5127368;27;21041;-60
2023/06/08 07:41:20;;;;;;;2.92;2.53;;;;;;;25.74;36.91;100506.22;5123356;27;20192;-59
2023/06/08 07:43:48;;;;;;;2.58;2.38;;;;;;;25.28;38.20;100509.25;5124970;27;20211;-62
2023/06/08 07:46:16;;;;;;;4.53;2.75;;;;;;;24.85;38.84;100509.34;5128542;27;20812;-60
2023/06/08 07:48:45;;;;;;;3.10;2.78;;;;;;;24.49;39.33;100507.25;5123232;27;20661;-62
2023/06/08 07:51:13;;;;;;;3.05;2.50;;;;;;;24.17;40.59;100510.03;5121207;27;20246;-60
2023/06/08 07:53:41;;;;;;;4.40;2.92;;;;;;;23.97;40.94;100499.84;5122840;27;20211;-60
2023/06/08 07:56:11;;;;;;;3.38;2.80;;;;;;;23.77;41.86;100501.91;5124568;27;20297;-60
2023/06/08 07:58:39;;;;;;;3.53;2.88;;;;;;;23.63;41.88;100500.03;5122751;27;20212;-60
2023/06/08 08:01:07;;;;;;;4.47;2.72;;;;;;;23.49;42.24;100494.75;5122544;27;20203;-62
2023/06/08 08:03:38;;;;;;;6.10;2.70;;;;;;;23.52;42.56;100509.50;5126685;27;20578;-61
2023/06/08 08:06:06;;;;;;;4.18;3.00;;;;;;;23.56;42.14;100503.97;5122222;27;20606;-61
2023/06/08 08:08:34;;;;;;;4.22;2.80;;;;;;;23.57;41.73;100505.69;5119764;27;20221;-60
2023/06/08 08:11:02;;;;;;;3.53;2.65;;;;;;;23.54;41.92;100503.22;5126550;27;20215;-60
2023/06/08 08:13:31;;;;;;;3.30;3.00;;;;;;;23.44;41.89;100520.47;5129527;27;20202;-61
2023/06/08 08:16:00;;;;;;;4.10;2.70;;;;;;;23.39;42.55;100512.84;5124961;27;20203;-60
2023/06/08 08:18:28;;;;;;;7.47;3.22;;;;;;;23.40;42.52;100508.44;5122539;27;20240;-61
2023/06/08 08:20:56;;;;;;;4.28;3.17;;;;;;;23.40;42.34;100513.69;5124359;27;20195;-61
2023/06/08 08:23:23;;;;;;;3.67;3.10;;;;;;;23.40;41.97;100513.69;5123655;27;20531;-59
2023/06/08 08:25:51;;;;;;;5.32;3.13;;;;;;;23.37;42.27;100509.44;5127455;27;20223;-61
2023/06/08 08:28:20;;;;;;;5.72;2.80;;;;;;;23.35;42.11;100506.06;5126653;27;20199;-61
2023/06/08 08:30:51;;;;;;;3.83;2.90;;;;;;;23.37;42.05;100506.81;5126245;27;20211;-61
2023/06/08 08:33:19;;;;;;;4.35;2.95;;;;;;;23.42;41.50;100501.31;5121542;27;20199;-61
2023/06/08 08:35:47;;;;;;;3.45;2.80;;;;;;;23.42;41.12;100498.69;5127375;27;20199;-63
2023/06/08 08:38:15;;;;;;;3.55;2.95;;;;;;;23.41;41.26;100502.22;5123238;27;20582;-61
2023/06/08 08:40:45;;;;;;;4.15;2.75;;;;;;;23.34;41.24;100498.25;5121000;27;20200;-62
2023/06/08 08:43:22;;;;;;;2.75;2.47;;;;;;;23.34;41.43;100503.50;5122961;27;20198;-61
2023/06/08 08:45:53;;;;;;;3.28;2.30;;;;;;;23.31;41.49;100493.19;5126673;27;20206;-63
2023/06/08 08:48:23;;;;;;;3.00;2.70;;;;;;;23.28;41.72;100496.00;5118719;27;20289;-61
2023/06/08 08:50:53;;;;;;;4.80;2.90;;;;;;;23.23;42.16;100482.25;5127554;27;20238;-61
2023/06/08 08:53:27;;;;;;;3.63;2.63;;;;;;;23.31;41.83;100487.94;5126939;27;20566;-62
2023/06/08 08:55:56;;;;;;;4.18;2.25;;;;;;;23.34;41.65;100493.00;5124367;27;20279;-62
2023/06/08 08:58:24;;;;;;;5.68;2.75;;;;;;;23.43;41.57;100486.38;5123135;27;20217;-59
2023/06/08 09:00:53;;;;;;;4.07;2.95;;;;;;;23.57;41.78;100479.38;5129386;27;20202;-58
2023/06/08 09:03:22;;;;;;;4.53;3.00;;;;;;;23.72;41.71;100482.06;5130935;27;20202;-61
2023/06/08 09:05:52;;;;;;;4.10;3.08;;;;;;;23.82;41.42;100481.44;5130284;27;20205;-59
2023/06/08 09:08:20;;;;;;;5.32;2.90;;;;;;;23.95;41.09;100486.81;5129511;27;20323;-62
2023/06/08 09:11:01;;;;;;;4.38;2.90;;;;;;;23.99;41.03;100474.28;5129483;27;20261;-62
2023/06/08 09:13:29;;;;;;;3.40;2.85;;;;;;;24.06;40.73;100486.16;5126355;27;20286;-61
2023/06/08 09:16:09;;;;;;;5.40;2.75;;;;;;;24.07;40.50;100472.88;5126790;27;20333;-60
2023/06/08 09:18:37;;;;;;;2.70;2.40;;;;;;;24.13;40.21;100474.31;5125656;27;20206;-61
2023/06/08 09:21:21;;;;;;;4.22;2.80;;;;;;;24.15;40.19;100467.16;5127691;27;20607;-61
2023/06/08 09:24:04;;;;;;;3.65;2.75;;;;;;;24.22;40.22;100467.63;5126924;27;20227;-61
2023/06/08 09:26:37;;;;;;;3.15;2.47;;;;;;;24.28;39.89;100475.16;5128952;27;20268;-61
2023/06/08 09:29:06;;;;;;;5.45;2.50;;;;;;;24.31;39.61;100464.44;5137668;27;20208;-63
2023/06/08 09:31:39;;;;;;;3.50;2.30;;;;;;;24.28;39.51;100462.00;5131918;27;20665;-62
2023/06/08 09:34:09;;;;;;;4.07;2.40;;;;;;;24.33;39.89;100457.28;5132322;27;20217;-61
2023/06/08 09:36:38;;;;;;;2.88;2.50;;;;;;;24.40;39.31;100458.63;5126705;27;20417;-61
2023/06/08 09:39:07;;;;;;;4.53;2.42;;;;;;;24.52;39.10;100459.63;5131434;27;20600;-62
2023/06/08 09:41:37;;;;;;;3.38;2.10;;;;;;;24.59;38.92;100443.31;5134670;27;20654;-61
2023/06/08 09:44:20;;;;;;;3.05;2.30;;;;;;;24.73;38.65;100454.78;5130815;27;20318;-61
2023/06/08 09:46:49;;;;;;;3.03;2.63;;;;;;;24.81;38.32;100453.34;5131506;27;20583;-62
2023/06/08 09:49:18;;;;;;;5.00;2.75;;;;;;;24.86;37.95;100450.44;5131910;27;20210;-61
2023/06/08 09:51:49;;;;;;;2.95;2.38;;;;;;;24.90;37.74;100448.44;5130992;27;20215;-63
2023/06/08 09:54:20;;;;;;;4.00;2.83;;;;;;;24.96;38.05;100458.56;5129793;27;20612;-62
2023/06/08 09:56:55;;;;;;;2.63;2.30;;;;;;;24.99;37.76;100456.59;5129043;27;20230;-61
2023/06/08 09:59:29;;;;;;;2.72;2.20;;;;;;;25.10;37.61;100445.38;5128013;27;20410;-61
2023/06/08 10:02:01;;;;;;;3.65;2.60;;;;;;;25.19;37.50;100449.22;5130624;27;20195;-61
2023/06/08 10:04:32;;;;;;;2.55;2.35;;;;;;;25.29;36.79;100439.72;5129424;27;20245;-61
2023/06/08 10:07:03;;;;;;;2.80;2.03;;;;;;;25.40;36.81;100434.56;5127579;27;20977;-61
2023/06/08 10:09:35;;;;;;;3.65;2.53;;;;;;;25.52;36.70;100436.41;5120756;27;20537;-61
2023/06/08 10:12:05;;;;;;;4.18;2.70;;;;;;;25.66;36.75;100434.59;5125273;27;20222;-60
2023/06/08 10:14:34;;;;;;;4.03;2.58;;;;;;;25.91;36.30;100426.72;5128245;27;20199;-61
2023/06/08 10:17:04;;;;;;;4.13;2.38;;;;;;;26.39;35.15;100434.78;5126760;27;20199;-63
2023/06/08 10:19:33;;;;;;;4.40;2.55;;;;;;;27.01;33.66;100419.78;5130565;27;20550;-66
2023/06/08 10:22:01;;;;;;;9.82;2.83;;;;;;;28.44;32.33;100421.13;5136699;27;20195;-71
2023/06/08 10:24:31;;;;;;;2.63;2.28;;;;;;;30.20;27.84;100409.00;5132793;27;20235;-73
2023/06/08 10:27:10;;;;;;;2.30;2.10;;;;;;;31.93;25.97;100408.31;5136562;27;20204;-73
2023/06/08 10:29:38;;;;;;;4.25;2.17;;;;;;;33.90;23.07;100407.28;5135796;27;20203;-73
2023/06/08 10:32:11;;;;;;;4.70;2.08;;;;;;;34.90;20.30;100394.03;5132527;27;20207;-73
2023/06/08 10:34:40;;;;;;;2.63;2.30;;;;;;;35.39;19.90;100399.41;5131041;27;20198;-74
2023/06/08 10:37:28;;;;;;;2.83;2.17;;;;;;;36.36;19.02;100396.56;5128864;27;20290;-73
2023/06/08 10:39:57;;;;;;;2.90;2.33;;;;;;;36.91;18.60;100388.31;5127347;27;20211;-72
2023/06/08 10:42:25;;;;;;;3.65;2.40;;;;;;;36.78;18.24;100387.25;5130840;27;20294;-73
2023/06/08 10:44:55;;;;;;;2.25;2.03;;;;;;;36.44;18.52;100393.84;5131895;27;20219;-73
2023/06/08 10:47:25;;;;;;;2.50;2.30;;;;;;;36.49;19.08;100399.53;5134200;27;20206;-74
2023/06/08 10:50:00;;;;;;;2.55;1.80;;;;;;;36.56;18.32;100391.59;5133378;27;20203;-73
2023/06/08 10:52:29;;;;;;;3.20;2.50;;;;;;;36.73;18.08;100387.78;5131753;27;20288;-74
2023/06/08 10:55:00;;;;;;;2.72;2.17;;;;;;;36.67;18.23;100388.50;5132143;27;20252;-75
2023/06/08 10:57:43;;;;;;;2.85;2.25;;;;;;;37.04;18.03;100386.88;5129773;27;20615;-74
2023/06/08 11:00:42;;;;;;;3.13;2.08;;;;;;;37.91;16.67;100390.72;5130933;27;20218;-77
2023/06/08 11:03:21;;;;;;;2.70;1.90;;;;;;;38.52;16.96;100382.34;5130937;27;20591;-76
2023/06/08 11:05:53;;;;;;;3.42;2.08;;;;;;;39.17;16.26;100388.50;5133095;27;20583;-76
2023/06/08 11:08:21;;;;;;;2.28;1.95;;;;;;;38.78;16.49;100379.06;5130368;27;20213;-74
2023/06/08 11:10:54;;;;;;;3.25;2.33;;;;;;;38.80;16.32;100376.19;5131443;27;20913;-74
2023/06/08 11:13:24;;;;;;;3.28;2.17;;;;;;;38.19;17.14;100377.41;5125660;27;20549;-76
2023/06/08 11:15:52;;;;;;;2.50;2.30;;;;;;;37.60;17.55;100384.69;5125312;27;20207;-75
2023/06/08 11:18:22;;;;;;;3.85;2.13;;;;;;;37.70;17.51;100377.97;5125472;27;20211;-74
2023/06/08 11:20:52;;;;;;;2.58;2.20;;;;;;;38.37;17.11;100371.63;5121375;27;20286;-75
2023/06/08 11:23:20;;;;;;;4.22;3.28;;;;;;;38.98;16.46;100367.63;5132750;27;20196;-77
2023/06/08 11:25:50;;;;;;;3.13;2.15;;;;;;;38.25;16.53;100367.72;5127009;27;20258;-76
2023/06/08 11:28:18;;;;;;;3.65;2.30;;;;;;;37.62;17.66;100372.69;5134259;27;20656;-74
2023/06/08 11:30:47;;;;;;;2.55;2.35;;;;;;;37.26;18.21;100367.19;5130531;27;20540;-74
2023/06/08 11:33:18;;;;;;;6.65;2.40;;;;;;;37.13;18.62;100361.63;5131010;27;20553;-65
2023/06/08 11:35:50;;;;;;;5.70;2.70;;;;;;;37.38;18.47;100359.53;5131316;27;20202;-66